sensor_id;sensor_type;location;lat;lon;timestamp;temperature;humidity
796;DHT22;381;48.770;9.188;2023-05-07T00:04:47;16.00;99.90
796;DHT22;381;48.770;9.188;2023-05-07T00:09:50;16.00;99.90
796;DHT22;381;48.770;9.188;2023-05-07T00:14:52;16.10;99.90
796;DHT22;381;48.770;9.188;2023-05-07T00:19:54;16.10;99.90
796;DHT22;381;48.770;9.188;2023-05-07T00:24:58;16.00;99.90
796;DHT22;381;48.770;9.188;2023-05-07T00:30:00;16.00;99.90
796;DHT22;381;48.770;9.188;2023-05-07T00:35:03;15.90;99.90
796;DHT22;381;48.770;9.188;2023-05-07T00:40:08;15.90;99.90
796;DHT22;381;48.770;9.188;2023-05-07T00:45:10;15.90;99.90
796;DHT22;381;48.770;9.188;2023-05-07T00:50:12;15.90;99.90
796;DHT22;381;48.770;9.188;2023-05-07T00:55:16;15.90;99.90
796;DHT22;381;48.770;9.188;2023-05-07T01:00:19;15.80;99.90
796;DHT22;381;48.770;9.188;2023-05-07T01:05:23;15.80;99.90
796;DHT22;381;48.770;9.188;2023-05-07T01:10:28;15.70;99.90
796;DHT22;381;48.770;9.188;2023-05-07T01:15:31;15.70;99.90
796;DHT22;381;48.770;9.188;2023-05-07T01:20:33;15.70;99.90
796;DHT22;381;48.770;9.188;2023-05-07T01:25:37;15.60;99.90
796;DHT22;381;48.770;9.188;2023-05-07T01:30:42;15.50;99.90
796;DHT22;381;48.770;9.188;2023-05-07T01:35:48;15.50;99.90
796;DHT22;381;48.770;9.188;2023-05-07T01:40:53;15.50;99.90
796;DHT22;381;48.770;9.188;2023-05-07T01:45:56;15.50;99.90
796;DHT22;381;48.770;9.188;2023-05-07T01:50:59;15.50;99.90
796;DHT22;381;48.770;9.188;2023-05-07T01:56:03;15.40;99.90
796;DHT22;381;48.770;9.188;2023-05-07T02:01:07;15.40;99.90
796;DHT22;381;48.770;9.188;2023-05-07T02:06:09;15.30;99.90
796;DHT22;381;48.770;9.188;2023-05-07T02:11:15;15.40;99.90
796;DHT22;381;48.770;9.188;2023-05-07T02:16:17;15.30;99.90
796;DHT22;381;48.770;9.188;2023-05-07T02:21:21;15.30;99.90
796;DHT22;381;48.770;9.188;2023-05-07T02:26:24;15.30;99.90
796;DHT22;381;48.770;9.188;2023-05-07T02:31:28;15.20;99.90
796;DHT22;381;48.770;9.188;2023-05-07T02:36:30;15.20;99.90
796;DHT22;381;48.770;9.188;2023-05-07T02:41:39;15.20;99.90
796;DHT22;381;48.770;9.188;2023-05-07T02:46:42;15.20;99.90
796;DHT22;381;48.770;9.188;2023-05-07T02:51:46;15.10;99.90
796;DHT22;381;48.770;9.188;2023-05-07T02:56:56;15.10;99.90
796;DHT22;381;48.770;9.188;2023-05-07T03:01:58;15.10;99.90
796;DHT22;381;48.770;9.188;2023-05-07T03:07:01;15.00;99.90
796;DHT22;381;48.770;9.188;2023-05-07T03:12:04;15.00;99.90
796;DHT22;381;48.770;9.188;2023-05-07T03:17:07;14.90;99.90
796;DHT22;381;48.770;9.188;2023-05-07T03:22:09;14.90;99.90
796;DHT22;381;48.770;9.188;2023-05-07T03:27:12;14.90;99.90
796;DHT22;381;48.770;9.188;2023-05-07T03:32:15;14.90;99.90
796;DHT22;381;48.770;9.188;2023-05-07T03:37:17;14.80;99.90
796;DHT22;381;48.770;9.188;2023-05-07T03:42:20;14.80;99.90
796;DHT22;381;48.770;9.188;2023-05-07T03:47:26;14.80;99.90
796;DHT22;381;48.770;9.188;2023-05-07T03:52:28;14.70;99.90
796;DHT22;381;48.770;9.188;2023-05-07T03:57:38;14.70;99.90
796;DHT22;381;48.770;9.188;2023-05-07T04:02:41;14.80;99.90
796;DHT22;381;48.770;9.188;2023-05-07T04:07:43;14.70;99.90
796;DHT22;381;48.770;9.188;2023-05-07T04:12:49;14.70;99.90
796;DHT22;381;48.770;9.188;2023-05-07T04:17:56;14.60;99.90
796;DHT22;381;48.770;9.188;2023-05-07T04:22:59;14.60;99.90
796;DHT22;381;48.770;9.188;2023-05-07T04:28:04;14.60;99.90
796;DHT22;381;48.770;9.188;2023-05-07T04:33:07;14.70;99.90
796;DHT22;381;48.770;9.188;2023-05-07T04:38:10;14.70;99.90
796;DHT22;381;48.770;9.188;2023-05-07T04:43:14;14.70;99.90
796;DHT22;381;48.770;9.188;2023-05-07T04:48:22;14.70;99.90
796;DHT22;381;48.770;9.188;2023-05-07T04:53:26;14.70;99.90
796;DHT22;381;48.770;9.188;2023-05-07T04:58:31;14.70;99.90
796;DHT22;381;48.770;9.188;2023-05-07T05:03:33;14.70;99.90
796;DHT22;381;48.770;9.188;2023-05-07T05:08:36;14.70;99.90
796;DHT22;381;48.770;9.188;2023-05-07T05:13:40;14.70;99.90
796;DHT22;381;48.770;9.188;2023-05-07T05:18:47;14.70;99.90
796;DHT22;381;48.770;9.188;2023-05-07T05:23:52;14.70;99.90
796;DHT22;381;48.770;9.188;2023-05-07T05:28:59;14.70;99.90
796;DHT22;381;48.770;9.188;2023-05-07T05:34:03;14.80;99.90
796;DHT22;381;48.770;9.188;2023-05-07T05:39:06;14.90;99.90
796;DHT22;381;48.770;9.188;2023-05-07T05:44:10;15.00;99.90
796;DHT22;381;48.770;9.188;2023-05-07T05:49:13;15.10;99.90
796;DHT22;381;48.770;9.188;2023-05-07T05:54:16;15.20;99.90
796;DHT22;381;48.770;9.188;2023-05-07T05:59:20;15.30;99.90
796;DHT22;381;48.770;9.188;2023-05-07T06:04:22;15.40;99.90
796;DHT22;381;48.770;9.188;2023-05-07T06:09:25;15.50;99.90
796;DHT22;381;48.770;9.188;2023-05-07T06:14:28;15.70;99.90
796;DHT22;381;48.770;9.188;2023-05-07T06:19:31;15.90;99.90
796;DHT22;381;48.770;9.188;2023-05-07T06:24:34;16.10;99.90
796;DHT22;381;48.770;9.188;2023-05-07T06:29:38;16.20;99.90
796;DHT22;381;48.770;9.188;2023-05-07T06:34:47;16.40;99.90
796;DHT22;381;48.770;9.188;2023-05-07T06:39:50;16.50;99.90
796;DHT22;381;48.770;9.188;2023-05-07T06:44:53;16.50;99.90
796;DHT22;381;48.770;9.188;2023-05-07T06:49:56;16.50;99.90
796;DHT22;381;48.770;9.188;2023-05-07T06:55:01;16.50;99.90
796;DHT22;381;48.770;9.188;2023-05-07T07:00:07;16.50;99.90
796;DHT22;381;48.770;9.188;2023-05-07T07:05:17;16.50;99.90
796;DHT22;381;48.770;9.188;2023-05-07T07:10:19;16.60;99.90
796;DHT22;381;48.770;9.188;2023-05-07T07:15:24;16.70;99.90
796;DHT22;381;48.770;9.188;2023-05-07T07:20:26;16.90;99.90
796;DHT22;381;48.770;9.188;2023-05-07T07:25:29;17.00;99.90
796;DHT22;381;48.770;9.188;2023-05-07T07:30:33;17.20;99.90
796;DHT22;381;48.770;9.188;2023-05-07T07:35:35;17.40;99.90
796;DHT22;381;48.770;9.188;2023-05-07T07:40:39;17.70;99.90
796;DHT22;381;48.770;9.188;2023-05-07T07:45:44;17.90;99.90
796;DHT22;381;48.770;9.188;2023-05-07T07:50:48;18.20;99.90
796;DHT22;381;48.770;9.188;2023-05-07T07:55:52;18.60;99.90
796;DHT22;381;48.770;9.188;2023-05-07T08:00:59;19.00;99.90
796;DHT22;381;48.770;9.188;2023-05-07T08:06:02;19.30;99.90
796;DHT22;381;48.770;9.188;2023-05-07T08:11:06;19.60;99.90
796;DHT22;381;48.770;9.188;2023-05-07T08:16:11;19.80;99.90
796;DHT22;381;48.770;9.188;2023-05-07T08:21:14;20.00;99.90
796;DHT22;381;48.770;9.188;2023-05-07T08:26:16;20.20;99.90
796;DHT22;381;48.770;9.188;2023-05-07T08:31:20;20.30;99.90
796;DHT22;381;48.770;9.188;2023-05-07T08:36:23;20.50;99.90
796;DHT22;381;48.770;9.188;2023-05-07T08:41:25;20.80;99.90
796;DHT22;381;48.770;9.188;2023-05-07T08:46:31;21.10;99.60
796;DHT22;381;48.770;9.188;2023-05-07T08:51:34;21.60;99.40
796;DHT22;381;48.770;9.188;2023-05-07T08:56:37;22.00;99.20
796;DHT22;381;48.770;9.188;2023-05-07T09:01:42;22.50;98.10
796;DHT22;381;48.770;9.188;2023-05-07T09:06:44;22.80;98.30
796;DHT22;381;48.770;9.188;2023-05-07T09:11:56;23.00;98.90
796;DHT22;381;48.770;9.188;2023-05-07T09:17:01;23.10;97.40
796;DHT22;381;48.770;9.188;2023-05-07T09:22:05;23.30;97.80
796;DHT22;381;48.770;9.188;2023-05-07T09:27:28;23.50;97.30
796;DHT22;381;48.770;9.188;2023-05-07T09:32:36;23.80;95.70
796;DHT22;381;48.770;9.188;2023-05-07T09:37:40;24.10;95.90
796;DHT22;381;48.770;9.188;2023-05-07T09:42:43;24.40;95.80
796;DHT22;381;48.770;9.188;2023-05-07T09:47:48;24.80;95.40
796;DHT22;381;48.770;9.188;2023-05-07T09:52:51;25.10;94.60
796;DHT22;381;48.770;9.188;2023-05-07T09:57:54;25.40;92.10
796;DHT22;381;48.770;9.188;2023-05-07T10:03:01;25.50;90.90
796;DHT22;381;48.770;9.188;2023-05-07T10:08:13;25.70;91.40
796;DHT22;381;48.770;9.188;2023-05-07T10:13:19;26.00;92.50
796;DHT22;381;48.770;9.188;2023-05-07T10:18:26;26.00;92.40
796;DHT22;381;48.770;9.188;2023-05-07T10:23:35;25.70;89.90
796;DHT22;381;48.770;9.188;2023-05-07T10:28:42;25.10;92.50
796;DHT22;381;48.770;9.188;2023-05-07T10:33:49;24.80;91.00
796;DHT22;381;48.770;9.188;2023-05-07T10:38:55;24.40;93.30
796;DHT22;381;48.770;9.188;2023-05-07T10:43:57;24.10;91.50
796;DHT22;381;48.770;9.188;2023-05-07T10:49:12;24.00;93.00
796;DHT22;381;48.770;9.188;2023-05-07T10:54:26;24.00;94.10
796;DHT22;381;48.770;9.188;2023-05-07T10:59:39;24.00;93.60
796;DHT22;381;48.770;9.188;2023-05-07T11:05:20;23.90;93.40
796;DHT22;381;48.770;9.188;2023-05-07T11:10:49;23.80;93.30
796;DHT22;381;48.770;9.188;2023-05-07T11:16:19;23.90;94.60
796;DHT22;381;48.770;9.188;2023-05-07T11:21:36;23.90;90.70
796;DHT22;381;48.770;9.188;2023-05-07T11:26:51;23.80;90.10
796;DHT22;381;48.770;9.188;2023-05-07T11:31:56;23.90;91.40
796;DHT22;381;48.770;9.188;2023-05-07T11:37:04;24.00;90.20
796;DHT22;381;48.770;9.188;2023-05-07T11:42:25;24.00;91.80
796;DHT22;381;48.770;9.188;2023-05-07T11:47:30;24.00;91.10
796;DHT22;381;48.770;9.188;2023-05-07T11:52:34;23.90;93.40
796;DHT22;381;48.770;9.188;2023-05-07T11:57:37;23.70;92.30
796;DHT22;381;48.770;9.188;2023-05-07T12:02:39;23.30;93.20
796;DHT22;381;48.770;9.188;2023-05-07T12:07:43;23.00;93.10
796;DHT22;381;48.770;9.188;2023-05-07T12:12:46;22.70;92.80
796;DHT22;381;48.770;9.188;2023-05-07T12:17:48;22.40;94.70
796;DHT22;381;48.770;9.188;2023-05-07T12:22:52;22.10;95.60
796;DHT22;381;48.770;9.188;2023-05-07T12:27:55;21.90;97.30
796;DHT22;381;48.770;9.188;2023-05-07T12:32:59;21.60;99.90
796;DHT22;381;48.770;9.188;2023-05-07T12:38:03;21.00;99.90
796;DHT22;381;48.770;9.188;2023-05-07T12:43:15;20.40;99.90
796;DHT22;381;48.770;9.188;2023-05-07T12:48:19;19.80;99.90
796;DHT22;381;48.770;9.188;2023-05-07T12:53:24;19.20;99.90
796;DHT22;381;48.770;9.188;2023-05-07T12:58:28;18.70;99.90
796;DHT22;381;48.770;9.188;2023-05-07T13:03:32;18.10;99.90
796;DHT22;381;48.770;9.188;2023-05-07T13:08:37;17.70;99.90
796;DHT22;381;48.770;9.188;2023-05-07T13:13:41;17.20;99.90
796;DHT22;381;48.770;9.188;2023-05-07T13:18:43;16.80;99.90
796;DHT22;381;48.770;9.188;2023-05-07T13:23:47;16.50;99.90
796;DHT22;381;48.770;9.188;2023-05-07T13:28:49;16.20;99.90
796;DHT22;381;48.770;9.188;2023-05-07T13:33:52;16.00;99.90
796;DHT22;381;48.770;9.188;2023-05-07T13:38:55;16.00;99.90
796;DHT22;381;48.770;9.188;2023-05-07T13:44:00;16.00;99.90
796;DHT22;381;48.770;9.188;2023-05-07T13:49:02;16.00;99.90
796;DHT22;381;48.770;9.188;2023-05-07T13:54:05;15.80;99.90
796;DHT22;381;48.770;9.188;2023-05-07T13:59:08;15.70;99.90
796;DHT22;381;48.770;9.188;2023-05-07T14:04:10;15.70;99.90
796;DHT22;381;48.770;9.188;2023-05-07T14:09:13;15.70;99.90
796;DHT22;381;48.770;9.188;2023-05-07T14:14:15;15.80;99.90
796;DHT22;381;48.770;9.188;2023-05-07T14:19:17;15.80;99.90
796;DHT22;381;48.770;9.188;2023-05-07T14:24:21;15.90;99.90
796;DHT22;381;48.770;9.188;2023-05-07T14:29:23;15.90;99.90
796;DHT22;381;48.770;9.188;2023-05-07T14:34:25;15.90;99.90
796;DHT22;381;48.770;9.188;2023-05-07T14:39:29;15.90;99.90
796;DHT22;381;48.770;9.188;2023-05-07T14:44:31;15.90;99.90
796;DHT22;381;48.770;9.188;2023-05-07T14:49:33;15.90;99.90
796;DHT22;381;48.770;9.188;2023-05-07T14:54:37;15.90;99.90
796;DHT22;381;48.770;9.188;2023-05-07T14:59:40;16.00;99.90
796;DHT22;381;48.770;9.188;2023-05-07T15:04:42;16.10;99.90
796;DHT22;381;48.770;9.188;2023-05-07T15:09:48;16.10;99.90
796;DHT22;381;48.770;9.188;2023-05-07T15:14:51;16.20;99.90
796;DHT22;381;48.770;9.188;2023-05-07T15:19:53;16.30;99.90
796;DHT22;381;48.770;9.188;2023-05-07T15:24:57;16.40;99.90
796;DHT22;381;48.770;9.188;2023-05-07T15:29:59;16.50;99.90
796;DHT22;381;48.770;9.188;2023-05-07T15:35:01;16.60;99.90
796;DHT22;381;48.770;9.188;2023-05-07T15:40:07;16.70;99.90
796;DHT22;381;48.770;9.188;2023-05-07T15:45:10;16.80;99.90
796;DHT22;381;48.770;9.188;2023-05-07T15:50:12;16.80;99.90
796;DHT22;381;48.770;9.188;2023-05-07T15:55:15;16.90;99.90
796;DHT22;381;48.770;9.188;2023-05-07T16:00:18;17.00;99.90
796;DHT22;381;48.770;9.188;2023-05-07T16:05:20;17.00;99.90
796;DHT22;381;48.770;9.188;2023-05-07T16:10:24;17.10;99.90
796;DHT22;381;48.770;9.188;2023-05-07T16:15:26;17.20;99.90
796;DHT22;381;48.770;9.188;2023-05-07T16:20:28;17.20;99.90
796;DHT22;381;48.770;9.188;2023-05-07T16:25:32;17.20;99.90
796;DHT22;381;48.770;9.188;2023-05-07T16:30:34;17.20;99.90
796;DHT22;381;48.770;9.188;2023-05-07T16:35:36;17.30;99.90
796;DHT22;381;48.770;9.188;2023-05-07T16:40:41;17.30;99.90
796;DHT22;381;48.770;9.188;2023-05-07T16:45:43;17.30;99.90
796;DHT22;381;48.770;9.188;2023-05-07T16:50:47;17.40;99.90
796;DHT22;381;48.770;9.188;2023-05-07T16:55:50;17.40;99.90
796;DHT22;381;48.770;9.188;2023-05-07T17:00:56;17.40;99.90
796;DHT22;381;48.770;9.188;2023-05-07T17:05:58;17.50;99.90
796;DHT22;381;48.770;9.188;2023-05-07T17:11:01;17.50;99.90
796;DHT22;381;48.770;9.188;2023-05-07T17:16:04;17.50;99.90
796;DHT22;381;48.770;9.188;2023-05-07T17:21:06;17.50;99.90
796;DHT22;381;48.770;9.188;2023-05-07T17:26:12;17.60;99.90
796;DHT22;381;48.770;9.188;2023-05-07T17:31:14;17.60;99.90
796;DHT22;381;48.770;9.188;2023-05-07T17:36:16;17.60;99.90
796;DHT22;381;48.770;9.188;2023-05-07T17:41:20;17.60;99.90
796;DHT22;381;48.770;9.188;2023-05-07T17:46:22;17.60;99.90
796;DHT22;381;48.770;9.188;2023-05-07T17:51:24;17.60;99.90
796;DHT22;381;48.770;9.188;2023-05-07T17:56:30;17.60;99.90
796;DHT22;381;48.770;9.188;2023-05-07T18:01:32;17.60;99.90
796;DHT22;381;48.770;9.188;2023-05-07T18:06:34;17.50;99.90
796;DHT22;381;48.770;9.188;2023-05-07T18:11:38;17.40;99.90
796;DHT22;381;48.770;9.188;2023-05-07T18:16:40;17.40;99.90
796;DHT22;381;48.770;9.188;2023-05-07T18:21:42;17.40;99.90
796;DHT22;381;48.770;9.188;2023-05-07T18:26:45;17.40;99.90
796;DHT22;381;48.770;9.188;2023-05-07T18:31:48;17.30;99.90
796;DHT22;381;48.770;9.188;2023-05-07T18:36:51;17.30;99.90
796;DHT22;381;48.770;9.188;2023-05-07T18:41:54;17.20;99.90
796;DHT22;381;48.770;9.188;2023-05-07T18:46:58;17.20;99.90
796;DHT22;381;48.770;9.188;2023-05-07T18:52:00;17.10;99.90
796;DHT22;381;48.770;9.188;2023-05-07T18:57:03;17.10;99.90
796;DHT22;381;48.770;9.188;2023-05-07T19:02:06;17.00;99.90
796;DHT22;381;48.770;9.188;2023-05-07T19:07:08;17.00;99.90
796;DHT22;381;48.770;9.188;2023-05-07T19:12:11;17.00;99.90
796;DHT22;381;48.770;9.188;2023-05-07T19:17:13;17.00;99.90
796;DHT22;381;48.770;9.188;2023-05-07T19:22:16;16.90;99.90
796;DHT22;381;48.770;9.188;2023-05-07T19:27:20;16.80;99.90
796;DHT22;381;48.770;9.188;2023-05-07T19:32:22;16.80;99.90
796;DHT22;381;48.770;9.188;2023-05-07T19:37:24;16.80;99.90
796;DHT22;381;48.770;9.188;2023-05-07T19:42:29;16.80;99.90
796;DHT22;381;48.770;9.188;2023-05-07T19:47:33;16.70;99.90
796;DHT22;381;48.770;9.188;2023-05-07T19:52:36;16.70;99.90
796;DHT22;381;48.770;9.188;2023-05-07T19:57:39;16.70;99.90
796;DHT22;381;48.770;9.188;2023-05-07T20:02:41;16.70;99.90
796;DHT22;381;48.770;9.188;2023-05-07T20:07:43;16.60;99.90
796;DHT22;381;48.770;9.188;2023-05-07T20:12:47;16.60;99.90
796;DHT22;381;48.770;9.188;2023-05-07T20:17:49;16.60;99.90
796;DHT22;381;48.770;9.188;2023-05-07T20:22:51;16.50;99.90
796;DHT22;381;48.770;9.188;2023-05-07T20:27:55;16.50;99.90
796;DHT22;381;48.770;9.188;2023-05-07T20:32:57;16.50;99.90
796;DHT22;381;48.770;9.188;2023-05-07T20:37:59;16.50;99.90
796;DHT22;381;48.770;9.188;2023-05-07T20:43:04;16.50;99.90
796;DHT22;381;48.770;9.188;2023-05-07T20:48:06;16.50;99.90
796;DHT22;381;48.770;9.188;2023-05-07T20:53:08;16.50;99.90
796;DHT22;381;48.770;9.188;2023-05-07T20:58:12;16.60;99.90
796;DHT22;381;48.770;9.188;2023-05-07T21:03:14;16.60;99.90
796;DHT22;381;48.770;9.188;2023-05-07T21:08:16;16.60;99.90
796;DHT22;381;48.770;9.188;2023-05-07T21:13:19;16.50;99.90
796;DHT22;381;48.770;9.188;2023-05-07T21:18:22;16.50;99.90
796;DHT22;381;48.770;9.188;2023-05-07T21:23:26;16.50;99.90
796;DHT22;381;48.770;9.188;2023-05-07T21:28:29;16.50;99.90
796;DHT22;381;48.770;9.188;2023-05-07T21:33:32;16.50;99.90
796;DHT22;381;48.770;9.188;2023-05-07T21:38:35;16.50;99.90
796;DHT22;381;48.770;9.188;2023-05-07T21:43:38;16.50;99.90
796;DHT22;381;48.770;9.188;2023-05-07T21:48:40;16.50;99.90
796;DHT22;381;48.770;9.188;2023-05-07T21:53:42;16.50;99.90
796;DHT22;381;48.770;9.188;2023-05-07T21:58:46;16.50;99.90
796;DHT22;381;48.770;9.188;2023-05-07T22:03:49;16.50;99.90
796;DHT22;381;48.770;9.188;2023-05-07T22:08:51;16.50;99.90
796;DHT22;381;48.770;9.188;2023-05-07T22:13:55;16.50;99.90
796;DHT22;381;48.770;9.188;2023-05-07T22:18:57;16.50;99.90
796;DHT22;381;48.770;9.188;2023-05-07T22:23:59;16.50;99.90
796;DHT22;381;48.770;9.188;2023-05-07T22:29:03;16.50;99.90
796;DHT22;381;48.770;9.188;2023-05-07T22:34:05;16.50;99.90
796;DHT22;381;48.770;9.188;2023-05-07T22:39:07;16.50;99.90
796;DHT22;381;48.770;9.188;2023-05-07T22:44:11;16.50;99.90
796;DHT22;381;48.770;9.188;2023-05-07T22:49:13;16.50;99.90
796;DHT22;381;48.770;9.188;2023-05-07T22:54:15;16.50;99.90
796;DHT22;381;48.770;9.188;2023-05-07T22:59:20;16.50;99.90
796;DHT22;381;48.770;9.188;2023-05-07T23:04:22;16.50;99.90
796;DHT22;381;48.770;9.188;2023-05-07T23:09:24;16.50;99.90
796;DHT22;381;48.770;9.188;2023-05-07T23:14:28;16.50;99.90
796;DHT22;381;48.770;9.188;2023-05-07T23:19:30;16.50;99.90
796;DHT22;381;48.770;9.188;2023-05-07T23:24:32;16.50;99.90
796;DHT22;381;48.770;9.188;2023-05-07T23:29:35;16.50;99.90
796;DHT22;381;48.770;9.188;2023-05-07T23:34:37;16.50;99.90
796;DHT22;381;48.770;9.188;2023-05-07T23:39:40;16.50;99.90
796;DHT22;381;48.770;9.188;2023-05-07T23:44:43;16.50;99.90
796;DHT22;381;48.770;9.188;2023-05-07T23:49:45;16.50;99.90
796;DHT22;381;48.770;9.188;2023-05-07T23:54:47;16.50;99.90
796;DHT22;381;48.770;9.188;2023-05-07T23:59:51;16.50;99.90
